createdAt,value
2019-04-23T00:01:28.469Z,-21589.28
2019-04-23T00:03:52.014Z,-21619.76
2019-04-23T00:09:12.571Z,-21592.07
2019-04-23T00:11:25.887Z,-21615.03
2019-04-23T00:14:35.720Z,-21609.61
2019-04-23T00:16:26.321Z,-21607.80
2019-04-23T00:19:03.211Z,-21627.96
2019-04-23T00:21:40.494Z,-21627.13
2019-04-23T00:24:17.467Z,-21623.79
2019-04-23T00:26:47.613Z,-21629.07
2019-04-23T00:29:26.080Z,-21627.13
2019-04-23T00:31:44.381Z,-21605.71
2019-04-23T00:34:09.435Z,-21621.71
2019-04-23T00:39:13.836Z,-21602.51
2019-04-23T00:41:42.532Z,-21606.96
2019-04-23T00:44:15.051Z,-21596.39
2019-04-23T00:46:43.457Z,-21607.24
2019-04-23T00:49:15.616Z,-21586.50
2019-04-23T00:51:47.737Z,-21588.30
2019-04-23T00:54:12.188Z,-21597.50
2019-04-23T00:59:11.893Z,-21602.93
2019-04-23T01:04:12.213Z,-21601.81
2019-04-23T01:06:41.502Z,-21580.09
2019-04-23T01:09:10.453Z,-21575.77
2019-04-23T01:11:43.521Z,-21587.75
2019-04-23T01:14:18.041Z,-21581.75
2019-04-23T01:16:37.422Z,-21594.44
2019-04-23T01:19:18.878Z,-21578.97
2019-04-23T01:21:26.443Z,-21580.22
2019-04-23T01:24:05.711Z,-21602.93
2019-04-23T01:27:24.155Z,-21587.75
2019-04-23T01:29:48.695Z,-21582.04
2019-04-23T01:32:08.633Z,-21583.43
2019-04-23T01:34:49.565Z,-21577.58
2019-04-23T01:37:13.098Z,-21583.43
2019-04-23T01:39:49.964Z,-21593.32
2019-04-23T01:42:22.807Z,-21593.60
2019-04-23T01:44:42.430Z,-21570.34
2019-04-23T01:47:18.685Z,-21587.61
2019-04-23T01:49:50.477Z,-21573.54
2019-04-23T01:52:14.532Z,-21582.73
2019-04-23T01:54:45.245Z,-21590.96
2019-04-23T01:57:18.125Z,-21555.96
2019-04-23T01:59:45.888Z,-21586.64
2019-04-23T02:02:15.539Z,-21584.83
2019-04-23T02:04:47.790Z,-21552.20
2019-04-23T02:07:11.253Z,-21590.68
2019-04-23T02:09:51.600Z,-21589.28
2019-04-23T02:12:11.233Z,-21602.65
2019-04-23T02:14:43.226Z,-21580.50
2019-04-23T02:17:16.027Z,-21575.21
2019-04-23T02:19:46.722Z,-21592.76
2019-04-23T02:22:13.245Z,-21592.21
2019-04-23T02:24:47.932Z,-21589.98
2019-04-23T02:27:26.466Z,-21573.96
2019-04-23T02:29:51.352Z,-21598.75
2019-04-23T02:32:19.690Z,-21598.75
2019-04-23T02:34:57.911Z,-21583.57
2019-04-23T02:37:36.351Z,-21600.28
2019-04-23T02:42:40.116Z,-21588.03
2019-04-23T02:44:45.228Z,-21594.02
2019-04-23T02:49:54.970Z,-21593.88
2019-04-23T02:52:21.794Z,-21577.16
2019-04-23T02:57:21.525Z,-21584.55
2019-04-23T03:00:07.984Z,-21598.89
2019-04-23T03:07:32.986Z,-21586.36
2019-04-23T03:09:51.307Z,-21580.92
2019-04-23T03:12:28.781Z,-21580.92
2019-04-23T03:17:15.022Z,-21581.06
2019-04-23T03:20:11.182Z,-21575.07
2019-04-23T03:22:35.624Z,-21590.12
2019-04-23T03:30:12.191Z,-21577.71
2019-04-23T03:37:40.738Z,-21550.94
2019-04-23T03:42:42.598Z,-21552.76
2019-04-23T03:45:30.250Z,-21566.15
2019-04-23T03:47:32.536Z,-21549.41
2019-04-23T03:57:32.753Z,-21575.63
2019-04-23T04:00:22.873Z,-21570.34
2019-04-23T04:05:08.289Z,-21573.12
2019-04-23T04:07:51.258Z,-21579.11
2019-04-23T04:10:02.225Z,-21575.91
2019-04-23T04:12:36.052Z,-21575.07
2019-04-23T04:20:15.297Z,-21561.12
2019-04-23T04:23:04.264Z,-21548.71
2019-04-23T04:25:10.060Z,-21560.15
2019-04-23T04:27:45.828Z,-21544.94
2019-04-23T04:30:16.382Z,-21558.48
2019-04-23T04:32:42.927Z,-21562.94
2019-04-23T04:35:18.722Z,-21560.71
2019-04-23T04:40:16.056Z,-21559.73
2019-04-23T04:42:51.734Z,-21548.71
2019-04-23T04:45:30.460Z,-21560.85
2019-04-23T04:47:42.215Z,-21568.80
2019-04-23T04:55:03.254Z,-21574.37
2019-04-23T04:57:40.195Z,-21563.63
2019-04-23T05:00:13.233Z,-21571.72
2019-04-23T05:10:30.070Z,-21573.54
2019-04-23T05:12:50.407Z,-21553.45
2019-04-23T05:15:00.780Z,-21556.66
2019-04-23T05:20:12.892Z,-21560.85
2019-04-23T05:25:05.517Z,-21574.09
2019-04-23T05:27:47.213Z,-21566.15
2019-04-23T05:30:15.631Z,-21561.82
2019-04-23T05:32:41.487Z,-21559.31
2019-04-23T05:35:09.882Z,-21582.04
2019-04-23T05:37:52.965Z,-21572.98
2019-04-23T05:40:22.440Z,-21552.76
2019-04-23T05:42:43.119Z,-21573.40
2019-04-23T05:45:08.289Z,-21585.80
2019-04-23T05:47:34.694Z,-21587.20
2019-04-23T05:50:12.704Z,-21585.39
2019-04-23T06:02:45.999Z,-21568.66
2019-04-23T06:05:08.845Z,-21602.93
2019-04-23T06:07:42.635Z,-21591.65
2019-04-23T06:12:39.643Z,-21580.22
2019-04-23T06:15:29.105Z,-21574.37
2019-04-23T06:17:42.655Z,-21583.71
2019-04-23T06:20:11.407Z,-21609.19
2019-04-23T06:22:42.389Z,-21605.16
2019-04-23T06:25:24.937Z,-21596.11
2019-04-23T06:27:43.151Z,-21607.24
2019-04-23T06:30:08.755Z,-21589.70
2019-04-23T06:32:41.277Z,-21626.16
2019-04-23T06:35:04.877Z,-21603.21
2019-04-23T06:38:03.199Z,-21617.39
2019-04-23T06:40:08.744Z,-21592.21
2019-04-23T06:42:49.311Z,-21614.33
2019-04-23T06:45:19.257Z,-21621.85
2019-04-23T06:47:45.939Z,-21620.32
2019-04-23T06:50:14.807Z,-21613.09
2019-04-23T06:52:43.780Z,-21635.19
2019-04-23T06:57:48.143Z,-21612.95
2019-04-23T07:00:24.102Z,-21604.18
2019-04-23T07:02:44.524Z,-21595.82
2019-04-23T07:05:15.837Z,-21607.80
2019-04-23T07:10:18.406Z,-21626.57
2019-04-23T07:12:51.764Z,-21639.22
2019-04-23T07:15:30.607Z,-21645.32
2019-04-23T07:17:42.761Z,-21626.43
2019-04-23T07:22:49.884Z,-21633.66
2019-04-23T07:25:17.566Z,-21640.88
2019-04-23T07:27:41.004Z,-21601.67
2019-04-23T07:30:23.747Z,-21593.60
2019-04-23T07:32:49.854Z,-21604.04
2019-04-23T07:35:13.719Z,-21625.05
2019-04-23T07:37:47.545Z,-21611.69
2019-04-23T07:40:27.098Z,-21619.20
2019-04-23T07:42:56.692Z,-21611.55
2019-04-23T07:45:30.972Z,-21633.52
2019-04-23T07:48:14.964Z,-21611.00
2019-04-23T07:53:24.621Z,-21625.18
2019-04-23T08:03:17.302Z,-21635.19
2019-04-23T08:05:39.564Z,-21632.13
2019-04-23T08:08:26.911Z,-21630.46
2019-04-23T08:11:10.722Z,-21651.16
2019-04-23T08:13:16.165Z,-21632.55
2019-04-23T08:15:49.837Z,-21650.60
2019-04-23T08:18:26.283Z,-21626.16
2019-04-23T08:20:50.894Z,-21640.75
2019-04-23T08:23:25.688Z,-21646.71
2019-04-23T08:26:19.400Z,-21649.91
2019-04-23T08:28:48.387Z,-21662.26
2019-04-23T08:31:16.468Z,-21666.97
2019-04-23T08:33:49.717Z,-21642.27
2019-04-23T08:38:42.613Z,-21646.43
2019-04-23T08:43:46.646Z,-21639.91
2019-04-23T08:46:33.409Z,-21642.00
2019-04-23T08:49:01.320Z,-21653.93
2019-04-23T08:51:38.953Z,-21651.29
2019-04-23T08:53:55.773Z,-21657.27
2019-04-23T08:59:02.496Z,-21643.25
2019-04-23T09:01:22.612Z,-21664.34
2019-04-23T09:03:51.494Z,-21659.07
2019-04-23T09:06:24.252Z,-21653.11
2019-04-23T09:09:13.206Z,-21671.00
2019-04-23T09:11:41.717Z,-21658.52
2019-04-23T09:16:44.632Z,-21652.13
2019-04-23T09:18:56.311Z,-21656.02
2019-04-23T09:23:56.183Z,-21646.30
2019-04-23T09:26:24.594Z,-21661.70
2019-04-23T09:32:07.349Z,-21660.04
2019-04-23T09:34:09.646Z,-21651.29
2019-04-23T09:36:59.667Z,-21647.96
2019-04-23T09:39:30.738Z,-21670.44
2019-04-23T09:42:05.730Z,-21649.77
2019-04-23T09:50:13.994Z,-21696.49
2019-04-23T09:52:52.796Z,-21715.17
2019-04-23T09:55:16.263Z,-21709.64
2019-04-23T09:57:43.116Z,-21705.77
2019-04-23T10:00:12.618Z,-21715.31
2019-04-23T10:02:30.922Z,-21737.57
2019-04-23T10:04:57.441Z,-21698.15
2019-04-23T10:07:25.162Z,-21685.96
2019-04-23T10:09:40.714Z,-21717.80
2019-04-23T10:12:09.510Z,-21731.76
2019-04-23T10:14:38.683Z,-21736.73
2019-04-23T10:17:08.427Z,-21749.71
2019-04-23T10:19:37.023Z,-21719.88
2019-04-23T10:22:05.269Z,-21781.98
2019-04-23T10:24:34.981Z,-21758.41
2019-04-23T10:27:04.259Z,-21771.79
2019-04-23T10:29:34.315Z,-21767.93
2019-04-23T10:32:03.857Z,-21766.68
2019-04-23T10:34:44.099Z,-21769.16
2019-04-23T10:37:02.208Z,-21772.75
2019-04-23T10:39:35.781Z,-21729.69
2019-04-23T10:42:01.838Z,-21783.08
2019-04-23T10:44:35.366Z,-21747.23
2019-04-23T10:47:53.994Z,-21774.96
2019-04-23T10:50:44.468Z,-21778.12
2019-04-23T10:53:09.991Z,-21800.43
2019-04-23T10:55:44.765Z,-21727.06
2019-04-23T10:58:08.397Z,-21785.70
2019-04-23T11:00:30.984Z,-21781.16
2019-04-23T11:03:18.617Z,-21774.54
2019-04-23T11:05:52.300Z,-21805.93
2019-04-23T11:08:06.962Z,-21807.86
2019-04-23T11:10:32.955Z,-21754.13
2019-04-23T11:13:10.581Z,-21781.43
2019-04-23T11:16:21.573Z,-21812.81
2019-04-23T11:18:04.086Z,-21797.40
2019-04-23T11:23:00.815Z,-21812.12
2019-04-23T11:25:45.848Z,-21812.26
2019-04-23T11:28:13.621Z,-21843.58
2019-04-23T11:30:42.885Z,-21823.81
2019-04-23T11:33:15.183Z,-21823.53
2019-04-23T11:38:44.531Z,-21835.76
2019-04-23T11:41:04.349Z,-21812.81
2019-04-23T11:43:20.811Z,-21839.33
2019-04-23T11:46:01.230Z,-21856.48
2019-04-23T11:51:20.826Z,-21862.92
2019-04-23T11:53:22.855Z,-21878.67
2019-04-23T11:55:55.800Z,-21882.92
2019-04-23T11:58:23.653Z,-21903.85
2019-04-23T12:01:02.143Z,-21890.59
2019-04-23T12:03:17.518Z,-21901.80
2019-04-23T12:06:15.601Z,-21866.48
2019-04-23T12:11:41.060Z,-21901.80
2019-04-23T12:13:52.569Z,-21934.59
2019-04-23T12:16:32.096Z,-21913.01
2019-04-23T12:21:33.498Z,-21876.90
2019-04-23T12:23:54.519Z,-21859.36
2019-04-23T12:26:33.322Z,-21896.61
2019-04-23T12:28:49.913Z,-21912.33
2019-04-23T12:31:26.448Z,-21903.03
2019-04-23T12:33:57.548Z,-21900.84
2019-04-23T12:36:46.910Z,-21885.25
2019-04-23T12:39:05.389Z,-21914.10
2019-04-23T12:41:36.112Z,-21896.74
2019-04-23T12:44:22.389Z,-21905.22
2019-04-23T12:46:38.374Z,-21871.14
2019-04-23T12:51:43.356Z,-21885.25
2019-04-23T12:54:06.994Z,-21865.80
2019-04-23T12:56:55.861Z,-21854.56
2019-04-23T12:59:01.693Z,-21845.78
2019-04-23T13:01:47.122Z,-21844.54
2019-04-23T13:03:59.674Z,-21834.80
2019-04-23T13:06:27.038Z,-21843.04
2019-04-23T13:09:19.739Z,-21851.68
2019-04-23T13:11:34.885Z,-21845.92
2019-04-23T13:14:07.202Z,-21860.32
2019-04-23T13:16:50.010Z,-21882.10
2019-04-23T13:19:13.764Z,-21867.99
2019-04-23T13:21:54.553Z,-21908.23
2019-04-23T13:24:07.612Z,-21909.18
2019-04-23T13:26:32.396Z,-21892.64
2019-04-23T13:29:13.521Z,-21899.07
2019-04-23T13:31:29.377Z,-21942.63
2019-04-23T13:34:07.137Z,-21946.86
2019-04-23T13:36:36.233Z,-21914.24
2019-04-23T13:39:16.842Z,-21915.33
2019-04-23T13:41:33.265Z,-21906.04
2019-04-23T13:44:00.125Z,-21936.63
2019-04-23T13:46:40.948Z,-21923.39
2019-04-23T13:49:03.102Z,-21932.13
2019-04-23T13:51:40.393Z,-21956.67
2019-04-23T13:54:15.646Z,-21903.71
2019-04-23T13:56:53.833Z,-21911.10
2019-04-23T13:59:16.329Z,-21912.88
2019-04-23T14:01:48.783Z,-21931.45
2019-04-23T14:04:16.411Z,-21908.77
2019-04-23T14:06:41.715Z,-21917.93
2019-04-23T14:09:21.703Z,-21901.80
2019-04-23T14:11:38.657Z,-21898.38
2019-04-23T14:14:31.650Z,-21911.64
2019-04-23T14:16:54.323Z,-21913.69
2019-04-23T14:19:12.215Z,-21894.56
2019-04-23T14:21:47.777Z,-21873.47
2019-04-23T14:26:46.333Z,-21901.25
2019-04-23T14:29:21.534Z,-21898.11
2019-04-23T14:31:56.311Z,-21883.61
2019-04-23T14:34:19.051Z,-21864.84
2019-04-23T14:37:06.201Z,-21866.34
2019-04-23T14:39:28.662Z,-21854.14
2019-04-23T14:41:54.158Z,-21843.86
2019-04-23T14:44:19.027Z,-21826.69
2019-04-23T14:47:03.503Z,-21833.15
2019-04-23T14:49:25.743Z,-21824.36
2019-04-23T14:54:34.377Z,-21793.69
2019-04-23T14:57:18.023Z,-21816.94
2019-04-23T14:59:21.513Z,-21799.88
2019-04-23T15:04:33.604Z,-21850.30
2019-04-23T15:07:15.678Z,-21788.18
2019-04-23T15:12:19.281Z,-21822.98
2019-04-23T15:14:33.096Z,-21797.27
2019-04-23T15:17:03.236Z,-21769.86
2019-04-23T15:19:47.654Z,-21805.11
2019-04-23T15:24:54.643Z,-21776.89
2019-04-23T15:29:25.944Z,-21819.68
2019-04-23T15:32:09.935Z,-21800.70
2019-04-23T15:34:30.561Z,-21741.15
2019-04-23T15:37:20.426Z,-21763.10
2019-04-23T15:39:42.653Z,-21805.11
2019-04-23T15:42:12.694Z,-21780.60
2019-04-23T15:44:37.611Z,-21824.63
2019-04-23T15:47:14.497Z,-21782.95
2019-04-23T15:54:43.697Z,-21792.73
2019-04-23T15:57:13.698Z,-21814.05
2019-04-23T16:01:43.656Z,-21772.47
2019-04-23T16:04:14.207Z,-21771.23
2019-04-23T16:06:41.580Z,-21764.34
2019-04-23T16:09:36.030Z,-21736.32
2019-04-23T16:12:01.516Z,-21789.70
2019-04-23T16:14:49.712Z,-21797.27
2019-04-23T16:19:53.211Z,-21776.34
2019-04-23T16:22:16.580Z,-21774.68
2019-04-23T16:24:52.975Z,-21771.09
2019-04-23T16:27:10.974Z,-21772.61
2019-04-23T16:29:54.172Z,-21791.48
2019-04-23T16:32:26.381Z,-21763.51
2019-04-23T16:34:44.926Z,-21794.93
2019-04-23T16:39:59.333Z,-21763.65
2019-04-23T16:42:24.832Z,-21783.36
2019-04-23T16:44:56.074Z,-21778.40
2019-04-23T16:49:58.363Z,-21763.93
2019-04-23T16:52:23.167Z,-21801.80
2019-04-23T16:54:55.059Z,-21800.16
2019-04-23T17:00:06.789Z,-21763.10
2019-04-23T17:02:19.636Z,-21754.13
2019-04-23T17:04:55.095Z,-21790.25
2019-04-23T17:07:13.188Z,-21787.77
2019-04-23T17:10:00.286Z,-21769.03
2019-04-23T17:14:54.540Z,-21758.82
2019-04-23T17:17:11.714Z,-21756.61
2019-04-23T17:19:56.963Z,-21774.68
2019-04-23T17:22:24.621Z,-21768.34
2019-04-23T17:25:15.301Z,-21764.76
2019-04-23T17:27:39.090Z,-21766.96
2019-04-23T17:30:12.003Z,-21763.79
2019-04-23T17:33:01.758Z,-21770.68
2019-04-23T17:35:24.442Z,-21771.37
2019-04-23T17:37:59.805Z,-21762.68
2019-04-23T17:40:47.502Z,-21772.89
2019-04-23T17:43:01.720Z,-21779.23
2019-04-23T17:45:32.376Z,-21771.51
2019-04-23T17:53:29.692Z,-21772.61
2019-04-23T17:55:54.884Z,-21769.16
2019-04-23T17:58:23.373Z,-21774.82
2019-04-23T18:03:45.559Z,-21769.58
2019-04-23T18:06:03.227Z,-21769.99
2019-04-23T18:08:23.255Z,-21742.67
2019-04-23T18:10:56.450Z,-21760.06
2019-04-23T18:13:21.068Z,-21765.71
2019-04-23T18:15:54.510Z,-21746.13
2019-04-23T18:18:33.554Z,-21769.86
2019-04-23T18:21:06.025Z,-21767.24
2019-04-23T18:23:27.629Z,-21764.61
2019-04-23T18:26:01.884Z,-21758.54
2019-04-23T18:28:27.698Z,-21756.61
2019-04-23T18:36:08.230Z,-21767.10
2019-04-23T18:38:45.939Z,-21773.44
2019-04-23T18:41:27.200Z,-21770.82
2019-04-23T18:43:50.991Z,-21769.16
2019-04-23T18:46:22.961Z,-21769.16
2019-04-23T18:51:07.855Z,-21760.06
2019-04-23T18:53:52.720Z,-21748.20
2019-04-23T18:59:04.498Z,-21746.13
2019-04-23T19:01:19.817Z,-21753.58
2019-04-23T19:12:26.421Z,-21745.29
2019-04-23T19:14:40.842Z,-21749.30
2019-04-23T19:19:46.435Z,-21741.57
2019-04-23T19:27:19.028Z,-21728.03
2019-04-23T19:29:46.321Z,-21728.30
2019-04-23T19:32:20.863Z,-21716.83
2019-04-23T19:37:23.233Z,-21731.49
2019-04-23T19:39:39.420Z,-21737.15
2019-04-23T19:42:20.406Z,-21727.75
2019-04-23T19:47:09.627Z,-21743.22
2019-04-23T19:52:03.470Z,-21733.28
2019-04-23T19:57:15.186Z,-21719.05
2019-04-23T20:04:41.042Z,-21711.58
2019-04-23T20:09:50.477Z,-21723.05
2019-04-23T20:12:07.762Z,-21722.50
2019-04-23T20:19:46.482Z,-21702.03
2019-04-23T20:30:04.842Z,-21700.23
2019-04-23T20:31:33.487Z,-21709.78
2019-04-23T20:32:53.687Z,-21706.32
2019-04-23T20:34:53.004Z,-21714.75
2019-04-23T20:37:30.849Z,-21707.01
2019-04-23T20:39:50.425Z,-21714.89
2019-04-23T20:42:16.536Z,-21719.46
2019-04-23T20:44:53.425Z,-21718.35
2019-04-23T20:47:15.567Z,-21709.09
2019-04-23T20:49:47.779Z,-21700.36
2019-04-23T20:52:32.034Z,-21705.35
2019-04-23T20:57:43.956Z,-21715.72
2019-04-23T21:00:24.309Z,-21717.11
2019-04-23T21:05:21.784Z,-21720.15
2019-04-23T21:15:36.126Z,-21675.02
2019-04-23T21:20:30.112Z,-21672.53
2019-04-23T21:23:01.172Z,-21682.91
2019-04-23T21:25:22.372Z,-21681.25
2019-04-23T21:28:04.742Z,-21685.69
2019-04-23T21:30:30.988Z,-21674.05
2019-04-23T21:32:56.324Z,-21677.65
2019-04-23T21:35:27.819Z,-21676.96
2019-04-23T21:43:09.316Z,-21677.23
2019-04-23T21:45:42.023Z,-21678.76
2019-04-23T21:48:15.729Z,-21667.39
2019-04-23T21:50:52.840Z,-21670.44
2019-04-23T21:53:06.218Z,-21675.98
2019-04-23T21:55:47.119Z,-21663.37
2019-04-23T21:58:19.675Z,-21664.06
2019-04-23T22:00:57.006Z,-21658.93
2019-04-23T22:03:20.585Z,-21632.82
2019-04-23T22:08:06.909Z,-21638.38
2019-04-23T22:11:00.622Z,-21652.55
2019-04-23T22:15:54.744Z,-21648.93
2019-04-23T22:18:09.434Z,-21642.27
2019-04-23T22:20:53.370Z,-21660.32
2019-04-23T22:23:11.079Z,-21666.84
2019-04-23T22:25:48.636Z,-21649.35
2019-04-23T22:28:21.888Z,-21672.94
2019-04-23T22:31:04.227Z,-21657.27
2019-04-23T22:33:17.773Z,-21659.48
2019-04-23T22:35:57.384Z,-21685.55
2019-04-23T22:38:21.137Z,-21657.40
2019-04-23T22:40:53.360Z,-21653.80
2019-04-23T22:45:59.913Z,-21673.77
2019-04-23T22:48:29.606Z,-21675.29
2019-04-23T22:53:13.780Z,-21671.69
2019-04-23T22:58:27.617Z,-21673.36
2019-04-23T23:01:10.660Z,-21649.35
2019-04-23T23:03:33.259Z,-21656.02
2019-04-23T23:08:30.889Z,-21639.77
2019-04-23T23:13:48.139Z,-21679.87
2019-04-23T23:18:53.762Z,-21704.93
2019-04-23T23:21:05.358Z,-21700.50
2019-04-23T23:23:36.541Z,-21698.02
2019-04-23T23:28:38.543Z,-21688.87
2019-04-23T23:31:07.031Z,-21689.29
2019-04-23T23:36:06.956Z,-21682.36
2019-04-23T23:41:12.889Z,-21692.20
2019-04-23T23:43:59.620Z,-21689.02
2019-04-23T23:48:36.016Z,-21677.10
2019-04-23T23:58:41.334Z,-21668.78
